CheckWX is a tool to help pilots better visualize weather data.  It is not intended as a substitute for an official pre-flight weather briefing.

21:07:20 UTC

ESPE METAR
Vidsel Air Base Airport
Vidsel, Sweden
Current

17 mins ago

ESPE 232050Z AUTO 29005KT 9999 SCT092/// 05/02 Q1017
Observed
Feb-23 @ 20:50 UTC
Wind
  • 290° at 5 KTS
Visibility
10,000+ meters
Flight Rules
VFR
Cloud Levels
  • Scattered at 9,200' AGL
Temperature
C / 41°F
Dewpoint
C / 36°F
Humidity
81%
Altimeter
30.03" Hg
Pressure
1016.92 hPa
Previous

47 mins ago

ESPE 232020Z AUTO 32003KT 260V030 9999 -RA NCD 05/02 Q1017
Observed
Feb-23 @ 20:20 UTC
Wind
  • 320° at 3 KTS
Visibility
10,000+ meters
Flight Rules
VFR
Conditions
Light Rain
Cloud Levels
  • Clear skies
Temperature
C / 41°F
Dewpoint
C / 36°F
Humidity
81%
Altimeter
30.03" Hg
Pressure
1016.92 hPa
Previous

1 hour ago

ESPE 231950Z AUTO 26006KT 230V290 9999 -RA FEW046/// 07/03 Q1018
Observed
Feb-23 @ 19:50 UTC
Wind
  • 260° at 6 KTS
Visibility
10,000+ meters
Flight Rules
VFR
Conditions
Light Rain
Cloud Levels
  • Few at 4,600' AGL
Temperature
C / 45°F
Dewpoint
C / 37°F
Humidity
76%
Altimeter
30.06" Hg
Pressure
1017.92 hPa